sensor_id;sensor_type;location;lat;lon;timestamp;P1;durP1;ratioP1;P2;durP2;ratioP2
16193;SDS011;8204;53.582;10.080;2023-08-17T00:02:13;7.43;;;2.70;;
16193;SDS011;8204;53.582;10.080;2023-08-17T00:04:39;3.27;;;2.40;;
16193;SDS011;8204;53.582;10.080;2023-08-17T00:07:05;3.47;;;2.77;;
16193;SDS011;8204;53.582;10.080;2023-08-17T00:09:31;3.70;;;2.60;;
16193;SDS011;8204;53.582;10.080;2023-08-17T00:11:58;5.27;;;2.37;;
16193;SDS011;8204;53.582;10.080;2023-08-17T00:14:24;3.10;;;2.50;;
16193;SDS011;8204;53.582;10.080;2023-08-17T00:16:50;6.00;;;2.43;;
16193;SDS011;8204;53.582;10.080;2023-08-17T00:19:16;3.03;;;2.73;;
16193;SDS011;8204;53.582;10.080;2023-08-17T00:21:41;5.93;;;2.90;;
16193;SDS011;8204;53.582;10.080;2023-08-17T00:24:07;3.57;;;2.60;;
16193;SDS011;8204;53.582;10.080;2023-08-17T00:26:33;5.07;;;2.50;;
16193;SDS011;8204;53.582;10.080;2023-08-17T00:28:58;6.80;;;2.50;;
16193;SDS011;8204;53.582;10.080;2023-08-17T00:31:24;4.43;;;2.30;;
16193;SDS011;8204;53.582;10.080;2023-08-17T00:33:49;2.83;;;2.47;;
16193;SDS011;8204;53.582;10.080;2023-08-17T00:36:14;8.37;;;3.27;;
16193;SDS011;8204;53.582;10.080;2023-08-17T00:38:40;2.70;;;2.47;;
16193;SDS011;8204;53.582;10.080;2023-08-17T00:41:05;5.13;;;2.70;;
16193;SDS011;8204;53.582;10.080;2023-08-17T00:43:31;3.30;;;2.20;;
16193;SDS011;8204;53.582;10.080;2023-08-17T00:45:56;3.03;;;2.10;;
16193;SDS011;8204;53.582;10.080;2023-08-17T00:48:22;3.73;;;2.53;;
16193;SDS011;8204;53.582;10.080;2023-08-17T00:50:49;4.90;;;2.17;;
16193;SDS011;8204;53.582;10.080;2023-08-17T00:53:16;2.97;;;2.40;;
16193;SDS011;8204;53.582;10.080;2023-08-17T00:55:42;3.97;;;2.40;;
16193;SDS011;8204;53.582;10.080;2023-08-17T00:58:08;4.10;;;2.40;;
16193;SDS011;8204;53.582;10.080;2023-08-17T01:00:33;4.03;;;2.87;;
16193;SDS011;8204;53.582;10.080;2023-08-17T01:02:59;4.30;;;2.80;;
16193;SDS011;8204;53.582;10.080;2023-08-17T01:05:25;3.97;;;2.80;;
16193;SDS011;8204;53.582;10.080;2023-08-17T01:07:50;5.10;;;3.13;;
16193;SDS011;8204;53.582;10.080;2023-08-17T01:10:16;5.53;;;2.47;;
16193;SDS011;8204;53.582;10.080;2023-08-17T01:15:21;4.97;;;2.47;;
16193;SDS011;8204;53.582;10.080;2023-08-17T01:18:04;3.57;;;2.50;;
16193;SDS011;8204;53.582;10.080;2023-08-17T01:20:49;3.63;;;3.00;;
16193;SDS011;8204;53.582;10.080;2023-08-17T01:23:15;2.43;;;2.13;;
16193;SDS011;8204;53.582;10.080;2023-08-17T01:25:41;4.83;;;2.53;;
16193;SDS011;8204;53.582;10.080;2023-08-17T01:28:06;3.60;;;2.57;;
16193;SDS011;8204;53.582;10.080;2023-08-17T01:30:40;4.30;;;1.97;;
16193;SDS011;8204;53.582;10.080;2023-08-17T01:33:11;3.47;;;2.57;;
16193;SDS011;8204;53.582;10.080;2023-08-17T01:35:46;3.17;;;2.40;;
16193;SDS011;8204;53.582;10.080;2023-08-17T01:38:18;4.53;;;2.50;;
16193;SDS011;8204;53.582;10.080;2023-08-17T01:40:47;5.63;;;3.03;;
16193;SDS011;8204;53.582;10.080;2023-08-17T01:43:14;4.97;;;2.53;;
16193;SDS011;8204;53.582;10.080;2023-08-17T01:45:41;2.20;;;2.10;;
16193;SDS011;8204;53.582;10.080;2023-08-17T01:48:07;5.20;;;3.03;;
16193;SDS011;8204;53.582;10.080;2023-08-17T01:50:32;3.40;;;2.40;;
16193;SDS011;8204;53.582;10.080;2023-08-17T01:52:57;5.70;;;3.33;;
16193;SDS011;8204;53.582;10.080;2023-08-17T01:55:23;4.87;;;2.90;;
16193;SDS011;8204;53.582;10.080;2023-08-17T01:57:49;3.70;;;2.10;;
16193;SDS011;8204;53.582;10.080;2023-08-17T02:00:16;5.10;;;2.07;;
16193;SDS011;8204;53.582;10.080;2023-08-17T02:02:41;8.37;;;2.80;;
16193;SDS011;8204;53.582;10.080;2023-08-17T02:05:06;4.73;;;3.60;;
16193;SDS011;8204;53.582;10.080;2023-08-17T02:07:33;3.83;;;2.73;;
16193;SDS011;8204;53.582;10.080;2023-08-17T02:09:58;3.73;;;2.40;;
16193;SDS011;8204;53.582;10.080;2023-08-17T02:12:24;6.33;;;3.10;;
16193;SDS011;8204;53.582;10.080;2023-08-17T02:14:49;4.80;;;2.80;;
16193;SDS011;8204;53.582;10.080;2023-08-17T02:17:14;5.33;;;3.23;;
16193;SDS011;8204;53.582;10.080;2023-08-17T02:19:44;4.73;;;2.37;;
16193;SDS011;8204;53.582;10.080;2023-08-17T02:22:12;4.30;;;2.67;;
16193;SDS011;8204;53.582;10.080;2023-08-17T02:24:38;6.10;;;2.77;;
16193;SDS011;8204;53.582;10.080;2023-08-17T02:27:03;4.37;;;2.30;;
16193;SDS011;8204;53.582;10.080;2023-08-17T02:29:28;4.07;;;2.40;;
16193;SDS011;8204;53.582;10.080;2023-08-17T02:31:54;2.50;;;2.17;;
16193;SDS011;8204;53.582;10.080;2023-08-17T02:34:19;5.27;;;2.80;;
16193;SDS011;8204;53.582;10.080;2023-08-17T02:36:45;4.67;;;2.27;;
16193;SDS011;8204;53.582;10.080;2023-08-17T02:39:10;3.00;;;2.37;;
16193;SDS011;8204;53.582;10.080;2023-08-17T02:41:35;4.97;;;2.73;;
16193;SDS011;8204;53.582;10.080;2023-08-17T02:44:01;5.83;;;2.50;;
16193;SDS011;8204;53.582;10.080;2023-08-17T02:46:27;5.57;;;2.57;;
16193;SDS011;8204;53.582;10.080;2023-08-17T02:48:52;7.10;;;2.37;;
16193;SDS011;8204;53.582;10.080;2023-08-17T02:51:18;6.83;;;2.70;;
16193;SDS011;8204;53.582;10.080;2023-08-17T02:53:43;3.47;;;2.40;;
16193;SDS011;8204;53.582;10.080;2023-08-17T02:56:09;3.17;;;2.17;;
16193;SDS011;8204;53.582;10.080;2023-08-17T02:58:40;5.50;;;2.80;;
16193;SDS011;8204;53.582;10.080;2023-08-17T03:01:06;4.37;;;2.67;;
16193;SDS011;8204;53.582;10.080;2023-08-17T03:03:32;4.10;;;2.47;;
16193;SDS011;8204;53.582;10.080;2023-08-17T03:05:58;3.17;;;2.43;;
16193;SDS011;8204;53.582;10.080;2023-08-17T03:08:23;2.60;;;2.37;;
16193;SDS011;8204;53.582;10.080;2023-08-17T03:10:49;3.17;;;2.37;;
16193;SDS011;8204;53.582;10.080;2023-08-17T03:13:14;2.53;;;2.30;;
16193;SDS011;8204;53.582;10.080;2023-08-17T03:15:39;4.43;;;2.30;;
16193;SDS011;8204;53.582;10.080;2023-08-17T03:18:05;8.73;;;2.73;;
16193;SDS011;8204;53.582;10.080;2023-08-17T03:20:31;6.20;;;3.20;;
16193;SDS011;8204;53.582;10.080;2023-08-17T03:22:56;2.27;;;2.07;;
16193;SDS011;8204;53.582;10.080;2023-08-17T03:25:22;5.40;;;2.47;;
16193;SDS011;8204;53.582;10.080;2023-08-17T03:27:47;4.00;;;2.60;;
16193;SDS011;8204;53.582;10.080;2023-08-17T03:30:12;4.47;;;2.67;;
16193;SDS011;8204;53.582;10.080;2023-08-17T03:32:38;2.30;;;1.97;;
16193;SDS011;8204;53.582;10.080;2023-08-17T03:35:03;2.33;;;2.03;;
16193;SDS011;8204;53.582;10.080;2023-08-17T03:37:29;3.07;;;2.40;;
16193;SDS011;8204;53.582;10.080;2023-08-17T03:39:54;2.40;;;2.20;;
16193;SDS011;8204;53.582;10.080;2023-08-17T03:42:20;4.40;;;2.47;;
16193;SDS011;8204;53.582;10.080;2023-08-17T03:44:46;2.27;;;2.07;;
16193;SDS011;8204;53.582;10.080;2023-08-17T03:47:11;3.27;;;2.13;;
16193;SDS011;8204;53.582;10.080;2023-08-17T03:49:36;2.07;;;1.87;;
16193;SDS011;8204;53.582;10.080;2023-08-17T03:52:02;4.43;;;2.60;;
16193;SDS011;8204;53.582;10.080;2023-08-17T03:54:27;2.40;;;2.10;;
16193;SDS011;8204;53.582;10.080;2023-08-17T03:56:52;2.70;;;2.10;;
16193;SDS011;8204;53.582;10.080;2023-08-17T03:59:18;2.10;;;1.90;;
16193;SDS011;8204;53.582;10.080;2023-08-17T04:01:43;6.60;;;2.37;;
16193;SDS011;8204;53.582;10.080;2023-08-17T04:04:09;4.33;;;2.20;;
16193;SDS011;8204;53.582;10.080;2023-08-17T04:06:34;6.03;;;2.70;;
16193;SDS011;8204;53.582;10.080;2023-08-17T04:09:00;3.13;;;2.43;;
16193;SDS011;8204;53.582;10.080;2023-08-17T04:11:26;4.50;;;2.30;;
16193;SDS011;8204;53.582;10.080;2023-08-17T04:13:51;3.53;;;2.03;;
16193;SDS011;8204;53.582;10.080;2023-08-17T04:16:17;2.97;;;2.63;;
16193;SDS011;8204;53.582;10.080;2023-08-17T04:18:42;3.30;;;2.60;;
16193;SDS011;8204;53.582;10.080;2023-08-17T04:21:07;5.20;;;2.73;;
16193;SDS011;8204;53.582;10.080;2023-08-17T04:23:32;2.50;;;2.20;;
16193;SDS011;8204;53.582;10.080;2023-08-17T04:25:58;4.33;;;2.20;;
16193;SDS011;8204;53.582;10.080;2023-08-17T04:28:24;4.50;;;2.87;;
16193;SDS011;8204;53.582;10.080;2023-08-17T04:30:49;2.90;;;2.37;;
16193;SDS011;8204;53.582;10.080;2023-08-17T04:33:15;4.77;;;2.53;;
16193;SDS011;8204;53.582;10.080;2023-08-17T04:35:40;3.80;;;2.80;;
16193;SDS011;8204;53.582;10.080;2023-08-17T04:38:05;5.07;;;2.20;;
16193;SDS011;8204;53.582;10.080;2023-08-17T04:40:31;3.83;;;2.33;;
16193;SDS011;8204;53.582;10.080;2023-08-17T04:42:57;4.20;;;2.77;;
16193;SDS011;8204;53.582;10.080;2023-08-17T04:45:22;3.00;;;2.70;;
16193;SDS011;8204;53.582;10.080;2023-08-17T04:47:48;6.07;;;2.73;;
16193;SDS011;8204;53.582;10.080;2023-08-17T04:50:14;4.57;;;2.80;;
16193;SDS011;8204;53.582;10.080;2023-08-17T04:52:42;7.37;;;3.13;;
16193;SDS011;8204;53.582;10.080;2023-08-17T04:55:08;6.70;;;3.07;;
16193;SDS011;8204;53.582;10.080;2023-08-17T04:57:34;5.67;;;2.40;;
16193;SDS011;8204;53.582;10.080;2023-08-17T04:59:59;4.17;;;2.57;;
16193;SDS011;8204;53.582;10.080;2023-08-17T05:02:24;7.63;;;3.33;;
16193;SDS011;8204;53.582;10.080;2023-08-17T05:04:50;3.90;;;2.60;;
16193;SDS011;8204;53.582;10.080;2023-08-17T05:07:15;4.30;;;2.60;;
16193;SDS011;8204;53.582;10.080;2023-08-17T05:09:40;5.23;;;3.60;;
16193;SDS011;8204;53.582;10.080;2023-08-17T05:12:06;3.80;;;2.97;;
16193;SDS011;8204;53.582;10.080;2023-08-17T05:14:32;6.50;;;2.67;;
16193;SDS011;8204;53.582;10.080;2023-08-17T05:16:57;4.03;;;3.27;;
16193;SDS011;8204;53.582;10.080;2023-08-17T05:19:22;4.53;;;2.53;;
16193;SDS011;8204;53.582;10.080;2023-08-17T05:21:48;2.90;;;2.60;;
16193;SDS011;8204;53.582;10.080;2023-08-17T05:24:15;6.77;;;3.47;;
16193;SDS011;8204;53.582;10.080;2023-08-17T05:26:40;4.77;;;3.20;;
16193;SDS011;8204;53.582;10.080;2023-08-17T05:29:07;4.03;;;2.77;;
16193;SDS011;8204;53.582;10.080;2023-08-17T05:31:33;3.50;;;2.67;;
16193;SDS011;8204;53.582;10.080;2023-08-17T05:33:58;5.13;;;2.80;;
16193;SDS011;8204;53.582;10.080;2023-08-17T05:36:24;3.63;;;2.53;;
16193;SDS011;8204;53.582;10.080;2023-08-17T05:38:49;5.37;;;3.07;;
16193;SDS011;8204;53.582;10.080;2023-08-17T05:41:15;5.87;;;2.90;;
16193;SDS011;8204;53.582;10.080;2023-08-17T05:43:42;5.47;;;3.03;;
16193;SDS011;8204;53.582;10.080;2023-08-17T05:46:07;4.30;;;2.83;;
16193;SDS011;8204;53.582;10.080;2023-08-17T05:48:33;6.23;;;3.40;;
16193;SDS011;8204;53.582;10.080;2023-08-17T05:50:58;7.00;;;3.50;;
16193;SDS011;8204;53.582;10.080;2023-08-17T05:53:24;6.90;;;3.73;;
16193;SDS011;8204;53.582;10.080;2023-08-17T05:55:49;3.70;;;3.40;;
16193;SDS011;8204;53.582;10.080;2023-08-17T05:58:15;4.53;;;3.43;;
16193;SDS011;8204;53.582;10.080;2023-08-17T06:00:40;6.33;;;4.00;;
16193;SDS011;8204;53.582;10.080;2023-08-17T06:03:06;5.27;;;3.47;;
16193;SDS011;8204;53.582;10.080;2023-08-17T06:05:32;5.97;;;3.57;;
16193;SDS011;8204;53.582;10.080;2023-08-17T06:07:58;7.10;;;3.63;;
16193;SDS011;8204;53.582;10.080;2023-08-17T06:10:24;5.77;;;4.20;;
16193;SDS011;8204;53.582;10.080;2023-08-17T06:12:56;7.23;;;4.97;;
16193;SDS011;8204;53.582;10.080;2023-08-17T06:15:22;7.83;;;5.60;;
16193;SDS011;8204;53.582;10.080;2023-08-17T06:17:48;7.83;;;4.80;;
16193;SDS011;8204;53.582;10.080;2023-08-17T06:20:16;4.60;;;4.03;;
16193;SDS011;8204;53.582;10.080;2023-08-17T06:22:42;8.03;;;4.00;;
16193;SDS011;8204;53.582;10.080;2023-08-17T06:25:07;6.73;;;4.00;;
16193;SDS011;8204;53.582;10.080;2023-08-17T06:27:34;5.53;;;3.43;;
16193;SDS011;8204;53.582;10.080;2023-08-17T06:30:00;6.47;;;4.00;;
16193;SDS011;8204;53.582;10.080;2023-08-17T06:32:30;6.60;;;4.20;;
16193;SDS011;8204;53.582;10.080;2023-08-17T06:34:55;8.13;;;5.67;;
16193;SDS011;8204;53.582;10.080;2023-08-17T06:37:21;4.83;;;3.47;;
16193;SDS011;8204;53.582;10.080;2023-08-17T06:39:46;7.37;;;3.93;;
16193;SDS011;8204;53.582;10.080;2023-08-17T06:42:11;8.23;;;4.03;;
16193;SDS011;8204;53.582;10.080;2023-08-17T06:44:37;4.23;;;3.67;;
16193;SDS011;8204;53.582;10.080;2023-08-17T06:47:02;8.40;;;4.33;;
16193;SDS011;8204;53.582;10.080;2023-08-17T06:49:28;5.23;;;3.40;;
16193;SDS011;8204;53.582;10.080;2023-08-17T06:51:54;4.10;;;3.70;;
16193;SDS011;8204;53.582;10.080;2023-08-17T06:54:19;4.43;;;4.07;;
16193;SDS011;8204;53.582;10.080;2023-08-17T06:56:44;7.70;;;4.03;;
16193;SDS011;8204;53.582;10.080;2023-08-17T06:59:10;3.53;;;3.23;;
16193;SDS011;8204;53.582;10.080;2023-08-17T07:01:36;4.70;;;3.57;;
16193;SDS011;8204;53.582;10.080;2023-08-17T07:04:01;5.63;;;3.47;;
16193;SDS011;8204;53.582;10.080;2023-08-17T07:06:27;4.93;;;3.20;;
16193;SDS011;8204;53.582;10.080;2023-08-17T07:08:54;6.67;;;4.00;;
16193;SDS011;8204;53.582;10.080;2023-08-17T07:11:20;4.80;;;4.43;;
16193;SDS011;8204;53.582;10.080;2023-08-17T07:13:45;4.33;;;3.60;;
16193;SDS011;8204;53.582;10.080;2023-08-17T07:16:11;7.10;;;3.87;;
16193;SDS011;8204;53.582;10.080;2023-08-17T07:18:36;4.73;;;3.73;;
16193;SDS011;8204;53.582;10.080;2023-08-17T07:21:01;4.33;;;3.17;;
16193;SDS011;8204;53.582;10.080;2023-08-17T07:23:27;3.83;;;3.53;;
16193;SDS011;8204;53.582;10.080;2023-08-17T07:25:52;4.13;;;3.70;;
16193;SDS011;8204;53.582;10.080;2023-08-17T07:28:17;3.87;;;3.47;;
16193;SDS011;8204;53.582;10.080;2023-08-17T07:30:43;3.80;;;2.87;;
16193;SDS011;8204;53.582;10.080;2023-08-17T07:33:08;3.07;;;2.80;;
16193;SDS011;8204;53.582;10.080;2023-08-17T07:35:34;4.47;;;3.57;;
16193;SDS011;8204;53.582;10.080;2023-08-17T07:38:00;3.90;;;3.20;;
16193;SDS011;8204;53.582;10.080;2023-08-17T07:40:25;5.43;;;2.83;;
16193;SDS011;8204;53.582;10.080;2023-08-17T07:42:51;3.43;;;3.23;;
16193;SDS011;8204;53.582;10.080;2023-08-17T07:45:16;3.87;;;3.03;;
16193;SDS011;8204;53.582;10.080;2023-08-17T07:47:41;4.93;;;3.10;;
16193;SDS011;8204;53.582;10.080;2023-08-17T07:50:07;3.93;;;3.10;;
16193;SDS011;8204;53.582;10.080;2023-08-17T07:52:33;3.17;;;2.87;;
16193;SDS011;8204;53.582;10.080;2023-08-17T07:54:58;7.03;;;3.47;;
16193;SDS011;8204;53.582;10.080;2023-08-17T07:57:24;4.10;;;3.40;;
16193;SDS011;8204;53.582;10.080;2023-08-17T07:59:49;4.33;;;3.93;;
16193;SDS011;8204;53.582;10.080;2023-08-17T08:02:16;9.43;;;4.03;;
16193;SDS011;8204;53.582;10.080;2023-08-17T08:04:41;8.60;;;6.03;;
16193;SDS011;8204;53.582;10.080;2023-08-17T08:07:07;7.23;;;4.63;;
16193;SDS011;8204;53.582;10.080;2023-08-17T08:09:32;5.87;;;5.13;;
16193;SDS011;8204;53.582;10.080;2023-08-17T08:11:58;5.93;;;4.63;;
16193;SDS011;8204;53.582;10.080;2023-08-17T08:14:23;4.43;;;3.37;;
16193;SDS011;8204;53.582;10.080;2023-08-17T08:16:48;3.93;;;3.40;;
16193;SDS011;8204;53.582;10.080;2023-08-17T08:19:14;5.43;;;3.20;;
16193;SDS011;8204;53.582;10.080;2023-08-17T08:21:39;6.00;;;3.30;;
16193;SDS011;8204;53.582;10.080;2023-08-17T08:24:05;8.37;;;4.33;;
16193;SDS011;8204;53.582;10.080;2023-08-17T08:26:30;3.37;;;3.07;;
16193;SDS011;8204;53.582;10.080;2023-08-17T08:28:56;4.17;;;3.03;;
16193;SDS011;8204;53.582;10.080;2023-08-17T08:31:21;3.80;;;2.80;;
16193;SDS011;8204;53.582;10.080;2023-08-17T08:33:46;2.93;;;2.73;;
16193;SDS011;8204;53.582;10.080;2023-08-17T08:36:12;4.00;;;3.63;;
16193;SDS011;8204;53.582;10.080;2023-08-17T08:38:37;2.77;;;2.57;;
16193;SDS011;8204;53.582;10.080;2023-08-17T08:41:02;3.93;;;2.70;;
16193;SDS011;8204;53.582;10.080;2023-08-17T08:43:29;4.37;;;2.60;;
16193;SDS011;8204;53.582;10.080;2023-08-17T08:45:54;2.70;;;2.50;;
16193;SDS011;8204;53.582;10.080;2023-08-17T08:48:20;4.77;;;3.20;;
16193;SDS011;8204;53.582;10.080;2023-08-17T08:50:47;4.27;;;2.90;;
16193;SDS011;8204;53.582;10.080;2023-08-17T08:53:15;3.10;;;2.70;;
16193;SDS011;8204;53.582;10.080;2023-08-17T08:55:47;4.60;;;2.67;;
16193;SDS011;8204;53.582;10.080;2023-08-17T08:58:19;2.80;;;2.60;;
16193;SDS011;8204;53.582;10.080;2023-08-17T09:00:46;3.53;;;3.23;;
16193;SDS011;8204;53.582;10.080;2023-08-17T09:03:15;3.20;;;2.27;;
16193;SDS011;8204;53.582;10.080;2023-08-17T09:05:48;2.97;;;2.67;;
16193;SDS011;8204;53.582;10.080;2023-08-17T09:08:15;3.77;;;3.40;;
16193;SDS011;8204;53.582;10.080;2023-08-17T09:10:43;5.73;;;3.73;;
16193;SDS011;8204;53.582;10.080;2023-08-17T09:13:09;3.13;;;2.83;;
16193;SDS011;8204;53.582;10.080;2023-08-17T09:15:35;4.87;;;3.60;;
16193;SDS011;8204;53.582;10.080;2023-08-17T09:18:00;5.60;;;3.10;;
16193;SDS011;8204;53.582;10.080;2023-08-17T09:23:13;5.13;;;3.40;;
16193;SDS011;8204;53.582;10.080;2023-08-17T09:25:41;3.67;;;3.37;;
16193;SDS011;8204;53.582;10.080;2023-08-17T09:28:11;2.23;;;2.03;;
16193;SDS011;8204;53.582;10.080;2023-08-17T09:33:24;2.50;;;2.30;;
16193;SDS011;8204;53.582;10.080;2023-08-17T09:35:51;2.70;;;2.50;;
16193;SDS011;8204;53.582;10.080;2023-08-17T09:38:17;4.70;;;2.40;;
16193;SDS011;8204;53.582;10.080;2023-08-17T09:40:43;4.70;;;2.80;;
16193;SDS011;8204;53.582;10.080;2023-08-17T09:43:10;4.20;;;2.60;;
16193;SDS011;8204;53.582;10.080;2023-08-17T09:45:37;4.33;;;2.60;;
16193;SDS011;8204;53.582;10.080;2023-08-17T09:48:03;3.40;;;2.80;;
16193;SDS011;8204;53.582;10.080;2023-08-17T09:50:29;3.47;;;2.90;;
16193;SDS011;8204;53.582;10.080;2023-08-17T09:52:54;5.30;;;2.50;;
16193;SDS011;8204;53.582;10.080;2023-08-17T09:55:20;3.33;;;2.70;;
16193;SDS011;8204;53.582;10.080;2023-08-17T09:57:48;2.70;;;2.50;;
16193;SDS011;8204;53.582;10.080;2023-08-17T10:00:15;4.03;;;2.10;;
16193;SDS011;8204;53.582;10.080;2023-08-17T10:02:40;2.80;;;2.60;;
16193;SDS011;8204;53.582;10.080;2023-08-17T10:05:09;3.80;;;3.20;;
16193;SDS011;8204;53.582;10.080;2023-08-17T10:07:37;2.47;;;2.27;;
16193;SDS011;8204;53.582;10.080;2023-08-17T10:10:06;2.37;;;2.20;;
16193;SDS011;8204;53.582;10.080;2023-08-17T10:12:36;4.30;;;2.73;;
16193;SDS011;8204;53.582;10.080;2023-08-17T10:15:03;4.03;;;2.83;;
16193;SDS011;8204;53.582;10.080;2023-08-17T10:20:35;3.30;;;2.63;;
16193;SDS011;8204;53.582;10.080;2023-08-17T10:23:14;6.23;;;2.67;;
16193;SDS011;8204;53.582;10.080;2023-08-17T10:25:47;2.60;;;2.33;;
16193;SDS011;8204;53.582;10.080;2023-08-17T10:28:13;2.70;;;2.10;;
16193;SDS011;8204;53.582;10.080;2023-08-17T10:30:40;3.20;;;2.40;;
16193;SDS011;8204;53.582;10.080;2023-08-17T10:33:06;2.30;;;2.10;;
16193;SDS011;8204;53.582;10.080;2023-08-17T10:35:33;2.53;;;2.33;;
16193;SDS011;8204;53.582;10.080;2023-08-17T10:37:59;2.87;;;2.57;;
16193;SDS011;8204;53.582;10.080;2023-08-17T10:40:26;2.97;;;2.50;;
16193;SDS011;8204;53.582;10.080;2023-08-17T10:42:53;3.10;;;2.17;;
16193;SDS011;8204;53.582;10.080;2023-08-17T10:50:37;2.27;;;2.07;;
16193;SDS011;8204;53.582;10.080;2023-08-17T10:53:03;2.43;;;2.23;;
16193;SDS011;8204;53.582;10.080;2023-08-17T10:55:44;2.57;;;2.33;;
16193;SDS011;8204;53.582;10.080;2023-08-17T10:58:10;3.97;;;2.70;;
16193;SDS011;8204;53.582;10.080;2023-08-17T11:00:40;8.10;;;5.07;;
16193;SDS011;8204;53.582;10.080;2023-08-17T11:03:07;6.07;;;3.23;;
16193;SDS011;8204;53.582;10.080;2023-08-17T11:05:41;3.27;;;2.57;;
16193;SDS011;8204;53.582;10.080;2023-08-17T11:08:12;3.97;;;3.00;;
16193;SDS011;8204;53.582;10.080;2023-08-17T11:13:32;4.30;;;2.47;;
16193;SDS011;8204;53.582;10.080;2023-08-17T11:15:59;1.80;;;1.70;;
16193;SDS011;8204;53.582;10.080;2023-08-17T11:18:26;2.07;;;1.97;;
16193;SDS011;8204;53.582;10.080;2023-08-17T11:20:52;2.30;;;2.20;;
16193;SDS011;8204;53.582;10.080;2023-08-17T11:23:18;2.93;;;2.73;;
16193;SDS011;8204;53.582;10.080;2023-08-17T11:25:44;2.13;;;2.03;;
16193;SDS011;8204;53.582;10.080;2023-08-17T11:28:09;3.40;;;2.30;;
16193;SDS011;8204;53.582;10.080;2023-08-17T11:30:35;2.87;;;2.57;;
16193;SDS011;8204;53.582;10.080;2023-08-17T11:33:04;4.03;;;2.30;;
16193;SDS011;8204;53.582;10.080;2023-08-17T11:35:30;3.10;;;2.90;;
16193;SDS011;8204;53.582;10.080;2023-08-17T11:37:56;4.20;;;3.03;;
16193;SDS011;8204;53.582;10.080;2023-08-17T11:40:21;3.40;;;2.67;;
16193;SDS011;8204;53.582;10.080;2023-08-17T11:42:47;3.20;;;2.97;;
16193;SDS011;8204;53.582;10.080;2023-08-17T11:45:13;9.93;;;3.13;;
16193;SDS011;8204;53.582;10.080;2023-08-17T11:47:39;3.60;;;3.17;;
16193;SDS011;8204;53.582;10.080;2023-08-17T11:50:06;3.47;;;3.20;;
16193;SDS011;8204;53.582;10.080;2023-08-17T11:52:34;3.47;;;3.17;;
16193;SDS011;8204;53.582;10.080;2023-08-17T11:55:01;4.37;;;3.70;;
16193;SDS011;8204;53.582;10.080;2023-08-17T11:57:27;5.73;;;3.77;;
16193;SDS011;8204;53.582;10.080;2023-08-17T11:59:55;4.97;;;3.40;;
16193;SDS011;8204;53.582;10.080;2023-08-17T12:02:22;6.00;;;3.47;;
16193;SDS011;8204;53.582;10.080;2023-08-17T12:04:48;9.63;;;3.90;;
16193;SDS011;8204;53.582;10.080;2023-08-17T12:07:14;3.70;;;3.40;;
16193;SDS011;8204;53.582;10.080;2023-08-17T12:09:42;3.53;;;3.23;;
16193;SDS011;8204;53.582;10.080;2023-08-17T12:12:09;3.37;;;3.13;;
16193;SDS011;8204;53.582;10.080;2023-08-17T12:14:34;5.40;;;4.63;;
16193;SDS011;8204;53.582;10.080;2023-08-17T12:17:00;3.70;;;3.50;;
16193;SDS011;8204;53.582;10.080;2023-08-17T12:19:25;3.80;;;3.40;;
16193;SDS011;8204;53.582;10.080;2023-08-17T12:21:51;5.27;;;3.80;;
16193;SDS011;8204;53.582;10.080;2023-08-17T12:24:17;5.37;;;4.80;;
16193;SDS011;8204;53.582;10.080;2023-08-17T12:26:44;4.43;;;3.83;;
16193;SDS011;8204;53.582;10.080;2023-08-17T12:29:11;5.13;;;4.63;;
16193;SDS011;8204;53.582;10.080;2023-08-17T12:31:38;6.73;;;4.37;;
16193;SDS011;8204;53.582;10.080;2023-08-17T12:34:04;5.93;;;4.27;;
16193;SDS011;8204;53.582;10.080;2023-08-17T12:36:31;4.10;;;3.70;;
16193;SDS011;8204;53.582;10.080;2023-08-17T12:38:57;3.77;;;3.47;;
16193;SDS011;8204;53.582;10.080;2023-08-17T12:41:22;4.43;;;3.17;;
16193;SDS011;8204;53.582;10.080;2023-08-17T12:43:47;3.70;;;3.37;;
16193;SDS011;8204;53.582;10.080;2023-08-17T12:46:13;2.83;;;2.63;;
16193;SDS011;8204;53.582;10.080;2023-08-17T12:48:38;3.57;;;3.10;;
16193;SDS011;8204;53.582;10.080;2023-08-17T12:51:04;4.00;;;3.60;;
16193;SDS011;8204;53.582;10.080;2023-08-17T12:53:29;3.80;;;3.50;;
16193;SDS011;8204;53.582;10.080;2023-08-17T12:55:55;3.83;;;3.53;;
16193;SDS011;8204;53.582;10.080;2023-08-17T12:58:20;7.43;;;3.77;;
16193;SDS011;8204;53.582;10.080;2023-08-17T13:00:45;4.37;;;3.97;;
16193;SDS011;8204;53.582;10.080;2023-08-17T13:03:11;4.63;;;4.07;;
16193;SDS011;8204;53.582;10.080;2023-08-17T13:05:36;4.07;;;3.67;;
16193;SDS011;8204;53.582;10.080;2023-08-17T13:08:02;8.60;;;5.67;;
16193;SDS011;8204;53.582;10.080;2023-08-17T13:10:27;4.30;;;3.90;;
16193;SDS011;8204;53.582;10.080;2023-08-17T13:12:54;5.00;;;3.33;;
16193;SDS011;8204;53.582;10.080;2023-08-17T13:15:24;3.93;;;3.53;;
16193;SDS011;8204;53.582;10.080;2023-08-17T13:17:50;5.63;;;3.10;;
16193;SDS011;8204;53.582;10.080;2023-08-17T13:20:15;4.73;;;2.17;;
16193;SDS011;8204;53.582;10.080;2023-08-17T13:22:41;2.63;;;2.10;;
16193;SDS011;8204;53.582;10.080;2023-08-17T13:25:06;3.73;;;2.30;;
16193;SDS011;8204;53.582;10.080;2023-08-17T13:27:32;1.83;;;1.67;;
16193;SDS011;8204;53.582;10.080;2023-08-17T13:29:59;2.97;;;1.83;;
16193;SDS011;8204;53.582;10.080;2023-08-17T13:32:26;2.37;;;2.13;;
16193;SDS011;8204;53.582;10.080;2023-08-17T13:34:52;2.83;;;1.93;;
16193;SDS011;8204;53.582;10.080;2023-08-17T13:37:17;2.63;;;2.43;;
16193;SDS011;8204;53.582;10.080;2023-08-17T13:39:43;2.70;;;1.83;;
16193;SDS011;8204;53.582;10.080;2023-08-17T13:42:09;2.47;;;2.20;;
16193;SDS011;8204;53.582;10.080;2023-08-17T13:44:34;2.20;;;2.10;;
16193;SDS011;8204;53.582;10.080;2023-08-17T13:47:00;4.00;;;2.80;;
16193;SDS011;8204;53.582;10.080;2023-08-17T13:49:26;2.53;;;2.07;;
16193;SDS011;8204;53.582;10.080;2023-08-17T13:51:53;2.97;;;2.27;;
16193;SDS011;8204;53.582;10.080;2023-08-17T13:54:18;2.60;;;2.37;;
16193;SDS011;8204;53.582;10.080;2023-08-17T13:56:44;2.53;;;2.00;;
16193;SDS011;8204;53.582;10.080;2023-08-17T13:59:09;2.40;;;2.20;;
16193;SDS011;8204;53.582;10.080;2023-08-17T14:01:35;2.27;;;2.17;;
16193;SDS011;8204;53.582;10.080;2023-08-17T14:04:00;2.57;;;2.27;;
16193;SDS011;8204;53.582;10.080;2023-08-17T14:06:28;2.27;;;2.17;;
16193;SDS011;8204;53.582;10.080;2023-08-17T14:08:54;4.23;;;3.00;;
16193;SDS011;8204;53.582;10.080;2023-08-17T14:11:19;4.20;;;2.50;;
16193;SDS011;8204;53.582;10.080;2023-08-17T14:13:44;2.73;;;2.40;;
16193;SDS011;8204;53.582;10.080;2023-08-17T14:16:10;2.83;;;2.63;;
16193;SDS011;8204;53.582;10.080;2023-08-17T14:18:36;2.80;;;2.60;;
16193;SDS011;8204;53.582;10.080;2023-08-17T14:21:01;5.57;;;2.50;;
16193;SDS011;8204;53.582;10.080;2023-08-17T14:23:26;1.87;;;1.73;;
16193;SDS011;8204;53.582;10.080;2023-08-17T14:25:52;4.90;;;3.23;;
16193;SDS011;8204;53.582;10.080;2023-08-17T14:28:17;3.80;;;3.10;;
16193;SDS011;8204;53.582;10.080;2023-08-17T14:30:43;3.93;;;3.40;;
16193;SDS011;8204;53.582;10.080;2023-08-17T14:33:09;2.83;;;2.63;;
16193;SDS011;8204;53.582;10.080;2023-08-17T14:35:34;6.43;;;2.87;;
16193;SDS011;8204;53.582;10.080;2023-08-17T14:37:59;3.60;;;3.30;;
16193;SDS011;8204;53.582;10.080;2023-08-17T14:40:26;4.17;;;2.87;;
16193;SDS011;8204;53.582;10.080;2023-08-17T14:42:52;5.33;;;3.33;;
16193;SDS011;8204;53.582;10.080;2023-08-17T14:45:18;4.97;;;3.40;;
16193;SDS011;8204;53.582;10.080;2023-08-17T14:47:43;4.47;;;3.50;;
16193;SDS011;8204;53.582;10.080;2023-08-17T14:50:08;5.37;;;3.37;;
16193;SDS011;8204;53.582;10.080;2023-08-17T14:52:34;3.70;;;3.33;;
16193;SDS011;8204;53.582;10.080;2023-08-17T14:54:59;2.93;;;2.63;;
16193;SDS011;8204;53.582;10.080;2023-08-17T14:57:25;4.20;;;3.70;;
16193;SDS011;8204;53.582;10.080;2023-08-17T14:59:51;3.00;;;2.33;;
16193;SDS011;8204;53.582;10.080;2023-08-17T15:02:17;2.60;;;2.50;;